sensor_id;sensor_type;location;lat;lon;timestamp;temperature;humidity
37646;DHT22;23489;49.600;6.138;2022-12-05T00:00:35;1.20;99.90
37646;DHT22;23489;49.600;6.138;2022-12-05T00:03:04;1.20;99.90
37646;DHT22;23489;49.600;6.138;2022-12-05T00:05:30;1.20;99.90
37646;DHT22;23489;49.600;6.138;2022-12-05T00:07:56;1.20;99.90
37646;DHT22;23489;49.600;6.138;2022-12-05T00:10:21;1.20;99.90
37646;DHT22;23489;49.600;6.138;2022-12-05T00:12:47;1.20;99.90
37646;DHT22;23489;49.600;6.138;2022-12-05T00:15:13;1.20;99.90
37646;DHT22;23489;49.600;6.138;2022-12-05T00:17:39;1.20;99.90
37646;DHT22;23489;49.600;6.138;2022-12-05T00:20:06;1.20;99.90
37646;DHT22;23489;49.600;6.138;2022-12-05T00:22:35;1.20;99.90
37646;DHT22;23489;49.600;6.138;2022-12-05T00:25:06;1.20;99.90
37646;DHT22;23489;49.600;6.138;2022-12-05T00:27:32;1.20;99.90
37646;DHT22;23489;49.600;6.138;2022-12-05T00:29:58;1.20;99.90
37646;DHT22;23489;49.600;6.138;2022-12-05T00:32:23;1.20;99.90
37646;DHT22;23489;49.600;6.138;2022-12-05T00:34:49;1.20;99.90
37646;DHT22;23489;49.600;6.138;2022-12-05T00:37:15;1.20;99.90
37646;DHT22;23489;49.600;6.138;2022-12-05T00:39:40;1.20;99.90
37646;DHT22;23489;49.600;6.138;2022-12-05T00:42:06;1.20;99.90
37646;DHT22;23489;49.600;6.138;2022-12-05T00:44:32;1.20;99.90
37646;DHT22;23489;49.600;6.138;2022-12-05T00:46:57;1.20;99.90
37646;DHT22;23489;49.600;6.138;2022-12-05T00:49:23;1.20;99.90
37646;DHT22;23489;49.600;6.138;2022-12-05T00:51:49;1.20;99.90
37646;DHT22;23489;49.600;6.138;2022-12-05T00:54:15;1.20;99.90
37646;DHT22;23489;49.600;6.138;2022-12-05T00:56:42;1.20;99.90
37646;DHT22;23489;49.600;6.138;2022-12-05T00:59:13;1.20;99.90
37646;DHT22;23489;49.600;6.138;2022-12-05T01:01:41;1.20;99.90
37646;DHT22;23489;49.600;6.138;2022-12-05T01:04:13;1.20;99.90
37646;DHT22;23489;49.600;6.138;2022-12-05T01:06:40;1.20;99.90
37646;DHT22;23489;49.600;6.138;2022-12-05T01:09:06;1.20;99.90
37646;DHT22;23489;49.600;6.138;2022-12-05T01:11:33;1.20;99.90
37646;DHT22;23489;49.600;6.138;2022-12-05T01:13:58;1.20;99.90
37646;DHT22;23489;49.600;6.138;2022-12-05T01:16:31;1.20;99.90
37646;DHT22;23489;49.600;6.138;2022-12-05T01:19:01;1.20;99.90
37646;DHT22;23489;49.600;6.138;2022-12-05T01:21:27;1.20;99.90
37646;DHT22;23489;49.600;6.138;2022-12-05T01:23:53;1.20;99.90
37646;DHT22;23489;49.600;6.138;2022-12-05T01:26:20;1.20;99.90
37646;DHT22;23489;49.600;6.138;2022-12-05T01:28:46;1.20;99.90
37646;DHT22;23489;49.600;6.138;2022-12-05T01:31:27;1.20;99.90
37646;DHT22;23489;49.600;6.138;2022-12-05T01:33:54;1.20;99.90
37646;DHT22;23489;49.600;6.138;2022-12-05T01:36:21;1.20;99.90
37646;DHT22;23489;49.600;6.138;2022-12-05T01:38:47;1.20;99.90
37646;DHT22;23489;49.600;6.138;2022-12-05T01:41:33;1.20;99.90
37646;DHT22;23489;49.600;6.138;2022-12-05T01:46:45;1.20;99.90
37646;DHT22;23489;49.600;6.138;2022-12-05T01:49:15;1.20;99.90
37646;DHT22;23489;49.600;6.138;2022-12-05T01:51:46;1.20;99.90
37646;DHT22;23489;49.600;6.138;2022-12-05T01:54:14;1.20;99.90
37646;DHT22;23489;49.600;6.138;2022-12-05T01:56:43;1.20;99.90
37646;DHT22;23489;49.600;6.138;2022-12-05T01:59:10;1.20;99.90
37646;DHT22;23489;49.600;6.138;2022-12-05T02:01:37;1.20;99.90
37646;DHT22;23489;49.600;6.138;2022-12-05T02:04:03;1.20;99.90
37646;DHT22;23489;49.600;6.138;2022-12-05T02:06:31;1.10;99.90
37646;DHT22;23489;49.600;6.138;2022-12-05T02:08:57;1.10;99.90
37646;DHT22;23489;49.600;6.138;2022-12-05T02:11:25;1.10;99.90
37646;DHT22;23489;49.600;6.138;2022-12-05T02:32:59;1.20;99.90
37646;DHT22;23489;49.600;6.138;2022-12-05T02:35:33;1.20;99.90
37646;DHT22;23489;49.600;6.138;2022-12-05T02:40:49;1.20;99.90
37646;DHT22;23489;49.600;6.138;2022-12-05T02:43:28;1.20;99.90
37646;DHT22;23489;49.600;6.138;2022-12-05T02:45:58;1.20;99.90
37646;DHT22;23489;49.600;6.138;2022-12-05T02:48:27;1.20;99.90
37646;DHT22;23489;49.600;6.138;2022-12-05T02:50:55;1.30;99.90
37646;DHT22;23489;49.600;6.138;2022-12-05T02:53:23;1.30;99.90
37646;DHT22;23489;49.600;6.138;2022-12-05T02:55:50;1.30;99.90
37646;DHT22;23489;49.600;6.138;2022-12-05T02:58:22;1.30;99.90
37646;DHT22;23489;49.600;6.138;2022-12-05T03:00:49;1.30;99.90
37646;DHT22;23489;49.600;6.138;2022-12-05T03:03:20;1.30;99.90
37646;DHT22;23489;49.600;6.138;2022-12-05T03:06:01;1.30;99.90
37646;DHT22;23489;49.600;6.138;2022-12-05T03:08:39;1.40;99.90
37646;DHT22;23489;49.600;6.138;2022-12-05T03:11:06;1.40;99.90
37646;DHT22;23489;49.600;6.138;2022-12-05T03:13:38;1.40;99.90
37646;DHT22;23489;49.600;6.138;2022-12-05T03:16:11;1.40;99.90
37646;DHT22;23489;49.600;6.138;2022-12-05T03:19:04;1.40;99.90
37646;DHT22;23489;49.600;6.138;2022-12-05T03:21:40;1.40;99.90
37646;DHT22;23489;49.600;6.138;2022-12-05T03:24:10;1.40;99.90
37646;DHT22;23489;49.600;6.138;2022-12-05T03:29:56;1.40;99.90
37646;DHT22;23489;49.600;6.138;2022-12-05T03:35:26;1.40;99.90
37646;DHT22;23489;49.600;6.138;2022-12-05T03:37:54;1.40;99.90
37646;DHT22;23489;49.600;6.138;2022-12-05T03:40:23;1.40;99.90
37646;DHT22;23489;49.600;6.138;2022-12-05T03:43:05;1.40;99.90
37646;DHT22;23489;49.600;6.138;2022-12-05T03:45:46;1.40;99.90
37646;DHT22;23489;49.600;6.138;2022-12-05T03:48:24;1.40;99.90
37646;DHT22;23489;49.600;6.138;2022-12-05T03:50:51;1.40;99.90
37646;DHT22;23489;49.600;6.138;2022-12-05T03:53:27;1.40;99.90
37646;DHT22;23489;49.600;6.138;2022-12-05T03:56:08;1.40;99.90
37646;DHT22;23489;49.600;6.138;2022-12-05T03:58:57;1.40;99.90
37646;DHT22;23489;49.600;6.138;2022-12-05T04:01:26;1.40;99.90
37646;DHT22;23489;49.600;6.138;2022-12-05T04:03:57;1.50;99.90
37646;DHT22;23489;49.600;6.138;2022-12-05T04:06:33;1.50;99.90
37646;DHT22;23489;49.600;6.138;2022-12-05T04:09:06;1.50;99.90
37646;DHT22;23489;49.600;6.138;2022-12-05T04:11:36;1.50;99.90
37646;DHT22;23489;49.600;6.138;2022-12-05T04:14:24;1.50;99.90
37646;DHT22;23489;49.600;6.138;2022-12-05T04:17:11;1.50;99.90
37646;DHT22;23489;49.600;6.138;2022-12-05T04:19:47;1.50;99.90
37646;DHT22;23489;49.600;6.138;2022-12-05T04:22:33;1.60;99.90
37646;DHT22;23489;49.600;6.138;2022-12-05T04:25:01;1.60;99.90
37646;DHT22;23489;49.600;6.138;2022-12-05T04:30:44;1.60;99.90
37646;DHT22;23489;49.600;6.138;2022-12-05T04:38:59;1.50;99.90
37646;DHT22;23489;49.600;6.138;2022-12-05T04:41:33;1.60;99.90
37646;DHT22;23489;49.600;6.138;2022-12-05T04:44:09;1.60;99.90
37646;DHT22;23489;49.600;6.138;2022-12-05T04:46:38;1.60;99.90
37646;DHT22;23489;49.600;6.138;2022-12-05T04:49:09;1.50;99.90
37646;DHT22;23489;49.600;6.138;2022-12-05T04:51:38;1.50;99.90
37646;DHT22;23489;49.600;6.138;2022-12-05T04:54:26;1.50;99.90
37646;DHT22;23489;49.600;6.138;2022-12-05T04:56:55;1.50;99.90
37646;DHT22;23489;49.600;6.138;2022-12-05T04:59:25;1.50;99.90
37646;DHT22;23489;49.600;6.138;2022-12-05T05:01:55;1.40;99.90
37646;DHT22;23489;49.600;6.138;2022-12-05T05:04:34;1.40;99.90
37646;DHT22;23489;49.600;6.138;2022-12-05T05:07:09;1.40;99.90
37646;DHT22;23489;49.600;6.138;2022-12-05T05:09:35;1.40;99.90
37646;DHT22;23489;49.600;6.138;2022-12-05T05:12:01;1.40;99.90
37646;DHT22;23489;49.600;6.138;2022-12-05T05:14:27;1.40;99.90
37646;DHT22;23489;49.600;6.138;2022-12-05T05:16:52;1.40;99.90
37646;DHT22;23489;49.600;6.138;2022-12-05T05:19:18;1.40;99.90
37646;DHT22;23489;49.600;6.138;2022-12-05T05:21:43;1.40;99.90
37646;DHT22;23489;49.600;6.138;2022-12-05T05:24:11;1.50;99.90
37646;DHT22;23489;49.600;6.138;2022-12-05T05:26:39;1.50;99.90
37646;DHT22;23489;49.600;6.138;2022-12-05T05:29:07;1.50;99.90
37646;DHT22;23489;49.600;6.138;2022-12-05T05:31:34;1.50;99.90
37646;DHT22;23489;49.600;6.138;2022-12-05T05:34:00;1.50;99.90
37646;DHT22;23489;49.600;6.138;2022-12-05T05:36:27;1.60;99.90
37646;DHT22;23489;49.600;6.138;2022-12-05T05:38:55;1.60;99.90
37646;DHT22;23489;49.600;6.138;2022-12-05T05:41:29;1.60;99.90
37646;DHT22;23489;49.600;6.138;2022-12-05T05:43:56;1.60;99.90
37646;DHT22;23489;49.600;6.138;2022-12-05T05:46:24;1.60;99.90
37646;DHT22;23489;49.600;6.138;2022-12-05T05:48:50;1.60;99.90
37646;DHT22;23489;49.600;6.138;2022-12-05T05:51:17;1.60;99.90
37646;DHT22;23489;49.600;6.138;2022-12-05T05:53:43;1.60;99.90
37646;DHT22;23489;49.600;6.138;2022-12-05T05:56:11;1.60;99.90
37646;DHT22;23489;49.600;6.138;2022-12-05T05:58:38;1.60;99.90
37646;DHT22;23489;49.600;6.138;2022-12-05T06:01:11;1.60;99.90
37646;DHT22;23489;49.600;6.138;2022-12-05T06:03:38;1.60;99.90
37646;DHT22;23489;49.600;6.138;2022-12-05T06:06:05;1.60;99.90
37646;DHT22;23489;49.600;6.138;2022-12-05T06:08:35;1.60;99.90
37646;DHT22;23489;49.600;6.138;2022-12-05T06:11:05;1.60;99.90
37646;DHT22;23489;49.600;6.138;2022-12-05T06:13:30;1.70;99.90
37646;DHT22;23489;49.600;6.138;2022-12-05T06:15:56;1.70;99.90
37646;DHT22;23489;49.600;6.138;2022-12-05T06:18:22;1.70;99.90
37646;DHT22;23489;49.600;6.138;2022-12-05T06:20:55;1.70;99.90
37646;DHT22;23489;49.600;6.138;2022-12-05T06:23:22;1.70;99.90
37646;DHT22;23489;49.600;6.138;2022-12-05T06:25:49;1.70;99.90
37646;DHT22;23489;49.600;6.138;2022-12-05T06:28:15;1.70;99.90
37646;DHT22;23489;49.600;6.138;2022-12-05T06:30:41;1.70;99.90
37646;DHT22;23489;49.600;6.138;2022-12-05T06:33:07;1.70;99.90
37646;DHT22;23489;49.600;6.138;2022-12-05T06:35:33;1.80;99.90
37646;DHT22;23489;49.600;6.138;2022-12-05T06:37:59;1.70;99.90
37646;DHT22;23489;49.600;6.138;2022-12-05T06:40:25;1.70;99.90
37646;DHT22;23489;49.600;6.138;2022-12-05T06:42:51;1.70;99.90
37646;DHT22;23489;49.600;6.138;2022-12-05T06:45:16;1.70;99.90
37646;DHT22;23489;49.600;6.138;2022-12-05T06:47:42;1.70;99.90
37646;DHT22;23489;49.600;6.138;2022-12-05T06:50:08;1.70;99.90
37646;DHT22;23489;49.600;6.138;2022-12-05T06:52:34;1.70;99.90
37646;DHT22;23489;49.600;6.138;2022-12-05T06:54:59;1.70;99.90
37646;DHT22;23489;49.600;6.138;2022-12-05T06:57:27;1.70;99.90
37646;DHT22;23489;49.600;6.138;2022-12-05T06:59:53;1.60;99.90
37646;DHT22;23489;49.600;6.138;2022-12-05T07:02:38;1.60;99.90
37646;DHT22;23489;49.600;6.138;2022-12-05T07:05:07;1.60;99.90
37646;DHT22;23489;49.600;6.138;2022-12-05T07:07:32;1.60;99.90
37646;DHT22;23489;49.600;6.138;2022-12-05T07:09:58;1.70;99.90
37646;DHT22;23489;49.600;6.138;2022-12-05T07:12:24;1.80;99.90
37646;DHT22;23489;49.600;6.138;2022-12-05T07:14:50;1.90;99.90
37646;DHT22;23489;49.600;6.138;2022-12-05T07:17:20;1.90;99.90
37646;DHT22;23489;49.600;6.138;2022-12-05T07:19:47;1.80;99.90
37646;DHT22;23489;49.600;6.138;2022-12-05T07:22:14;1.80;99.90
37646;DHT22;23489;49.600;6.138;2022-12-05T07:24:40;1.80;99.90
37646;DHT22;23489;49.600;6.138;2022-12-05T07:27:05;1.80;99.90
37646;DHT22;23489;49.600;6.138;2022-12-05T07:29:31;1.80;99.90
37646;DHT22;23489;49.600;6.138;2022-12-05T07:31:57;1.80;99.90
37646;DHT22;23489;49.600;6.138;2022-12-05T07:34:23;1.80;99.90
37646;DHT22;23489;49.600;6.138;2022-12-05T07:36:48;1.80;99.90
37646;DHT22;23489;49.600;6.138;2022-12-05T07:39:14;1.80;99.90
37646;DHT22;23489;49.600;6.138;2022-12-05T07:41:40;1.80;99.90
37646;DHT22;23489;49.600;6.138;2022-12-05T07:44:10;1.70;99.90
37646;DHT22;23489;49.600;6.138;2022-12-05T07:46:36;1.70;99.90
37646;DHT22;23489;49.600;6.138;2022-12-05T07:49:02;1.70;99.90
37646;DHT22;23489;49.600;6.138;2022-12-05T07:51:28;1.70;99.90
37646;DHT22;23489;49.600;6.138;2022-12-05T07:53:54;1.70;99.90
37646;DHT22;23489;49.600;6.138;2022-12-05T07:56:20;1.70;99.90
37646;DHT22;23489;49.600;6.138;2022-12-05T07:58:49;1.70;99.90
37646;DHT22;23489;49.600;6.138;2022-12-05T08:01:17;1.80;99.90
37646;DHT22;23489;49.600;6.138;2022-12-05T08:03:43;1.80;99.90
37646;DHT22;23489;49.600;6.138;2022-12-05T08:06:15;1.80;99.90
37646;DHT22;23489;49.600;6.138;2022-12-05T08:08:42;1.80;99.90
37646;DHT22;23489;49.600;6.138;2022-12-05T08:11:11;1.80;99.90
37646;DHT22;23489;49.600;6.138;2022-12-05T08:13:37;1.80;99.90
37646;DHT22;23489;49.600;6.138;2022-12-05T08:16:14;1.80;99.90
37646;DHT22;23489;49.600;6.138;2022-12-05T08:18:42;1.90;99.90
37646;DHT22;23489;49.600;6.138;2022-12-05T08:21:15;1.90;99.90
37646;DHT22;23489;49.600;6.138;2022-12-05T08:23:42;1.90;99.90
37646;DHT22;23489;49.600;6.138;2022-12-05T08:26:10;1.90;99.90
37646;DHT22;23489;49.600;6.138;2022-12-05T08:28:37;1.90;99.90
37646;DHT22;23489;49.600;6.138;2022-12-05T08:31:08;1.90;99.90
37646;DHT22;23489;49.600;6.138;2022-12-05T08:33:34;2.00;99.90
37646;DHT22;23489;49.600;6.138;2022-12-05T08:36:05;2.00;99.90
37646;DHT22;23489;49.600;6.138;2022-12-05T08:38:32;2.10;99.90
37646;DHT22;23489;49.600;6.138;2022-12-05T08:41:03;2.10;99.90
37646;DHT22;23489;49.600;6.138;2022-12-05T08:43:30;2.10;99.90
37646;DHT22;23489;49.600;6.138;2022-12-05T08:45:56;2.20;99.90
37646;DHT22;23489;49.600;6.138;2022-12-05T08:48:24;2.20;99.90
37646;DHT22;23489;49.600;6.138;2022-12-05T08:50:49;2.30;99.90
37646;DHT22;23489;49.600;6.138;2022-12-05T08:53:15;2.30;99.90
37646;DHT22;23489;49.600;6.138;2022-12-05T08:55:41;2.30;99.90
37646;DHT22;23489;49.600;6.138;2022-12-05T08:58:07;2.30;99.90
37646;DHT22;23489;49.600;6.138;2022-12-05T09:00:33;2.30;99.90
37646;DHT22;23489;49.600;6.138;2022-12-05T09:02:59;2.40;99.90
37646;DHT22;23489;49.600;6.138;2022-12-05T09:05:25;2.40;99.90
37646;DHT22;23489;49.600;6.138;2022-12-05T09:07:51;2.40;99.90
37646;DHT22;23489;49.600;6.138;2022-12-05T09:10:17;2.40;99.90
37646;DHT22;23489;49.600;6.138;2022-12-05T09:12:43;2.40;99.90
37646;DHT22;23489;49.600;6.138;2022-12-05T09:15:10;2.40;99.90
37646;DHT22;23489;49.600;6.138;2022-12-05T09:17:36;2.40;99.90
37646;DHT22;23489;49.600;6.138;2022-12-05T09:20:03;2.40;99.90
37646;DHT22;23489;49.600;6.138;2022-12-05T09:22:29;2.40;99.90
37646;DHT22;23489;49.600;6.138;2022-12-05T09:24:54;2.40;99.90
37646;DHT22;23489;49.600;6.138;2022-12-05T09:27:20;2.40;99.90
37646;DHT22;23489;49.600;6.138;2022-12-05T09:29:46;2.50;99.90
37646;DHT22;23489;49.600;6.138;2022-12-05T09:32:11;2.50;99.90
37646;DHT22;23489;49.600;6.138;2022-12-05T09:34:37;2.50;99.90
37646;DHT22;23489;49.600;6.138;2022-12-05T09:37:04;2.50;99.90
37646;DHT22;23489;49.600;6.138;2022-12-05T09:39:30;2.50;99.90
37646;DHT22;23489;49.600;6.138;2022-12-05T09:42:12;2.60;99.90
37646;DHT22;23489;49.600;6.138;2022-12-05T09:55:45;2.80;99.90
37646;DHT22;23489;49.600;6.138;2022-12-05T10:03:42;2.80;99.90
37646;DHT22;23489;49.600;6.138;2022-12-05T10:12:06;2.80;99.90
37646;DHT22;23489;49.600;6.138;2022-12-05T10:17:37;2.90;99.90
37646;DHT22;23489;49.600;6.138;2022-12-05T10:20:34;2.90;99.90
37646;DHT22;23489;49.600;6.138;2022-12-05T10:23:05;2.90;99.90
37646;DHT22;23489;49.600;6.138;2022-12-05T10:25:33;2.90;99.90
37646;DHT22;23489;49.600;6.138;2022-12-05T10:28:04;3.00;99.90
37646;DHT22;23489;49.600;6.138;2022-12-05T10:30:32;3.00;99.90
37646;DHT22;23489;49.600;6.138;2022-12-05T10:33:14;2.90;99.90
37646;DHT22;23489;49.600;6.138;2022-12-05T10:35:41;2.90;99.90
37646;DHT22;23489;49.600;6.138;2022-12-05T10:38:18;2.90;99.90
37646;DHT22;23489;49.600;6.138;2022-12-05T10:40:53;2.90;99.90
37646;DHT22;23489;49.600;6.138;2022-12-05T10:43:25;3.00;99.90
37646;DHT22;23489;49.600;6.138;2022-12-05T10:45:52;3.00;99.90
37646;DHT22;23489;49.600;6.138;2022-12-05T10:48:19;3.00;99.90
37646;DHT22;23489;49.600;6.138;2022-12-05T10:50:51;3.00;99.90
37646;DHT22;23489;49.600;6.138;2022-12-05T10:53:20;3.10;99.90
37646;DHT22;23489;49.600;6.138;2022-12-05T10:55:48;3.20;99.90
37646;DHT22;23489;49.600;6.138;2022-12-05T10:58:26;3.20;99.90
37646;DHT22;23489;49.600;6.138;2022-12-05T11:01:17;3.10;99.90
37646;DHT22;23489;49.600;6.138;2022-12-05T11:03:42;3.20;99.90
37646;DHT22;23489;49.600;6.138;2022-12-05T11:06:24;3.20;99.90
37646;DHT22;23489;49.600;6.138;2022-12-05T11:08:52;3.20;99.90
37646;DHT22;23489;49.600;6.138;2022-12-05T11:11:22;3.20;99.90
37646;DHT22;23489;49.600;6.138;2022-12-05T11:13:58;3.20;99.90
37646;DHT22;23489;49.600;6.138;2022-12-05T11:16:27;3.30;99.90
37646;DHT22;23489;49.600;6.138;2022-12-05T11:18:53;3.30;99.90
37646;DHT22;23489;49.600;6.138;2022-12-05T11:21:19;3.40;99.90
37646;DHT22;23489;49.600;6.138;2022-12-05T11:23:46;3.30;99.90
37646;DHT22;23489;49.600;6.138;2022-12-05T11:26:33;3.40;99.90
37646;DHT22;23489;49.600;6.138;2022-12-05T11:29:00;3.60;99.90
37646;DHT22;23489;49.600;6.138;2022-12-05T11:31:28;3.60;99.90
37646;DHT22;23489;49.600;6.138;2022-12-05T11:34:02;3.70;99.90
37646;DHT22;23489;49.600;6.138;2022-12-05T11:36:40;3.80;99.90
37646;DHT22;23489;49.600;6.138;2022-12-05T11:39:09;3.80;99.90
37646;DHT22;23489;49.600;6.138;2022-12-05T11:44:11;3.80;99.90
37646;DHT22;23489;49.600;6.138;2022-12-05T11:46:58;3.80;99.90
37646;DHT22;23489;49.600;6.138;2022-12-05T11:49:58;3.90;99.90
37646;DHT22;23489;49.600;6.138;2022-12-05T11:55:20;3.90;99.90
37646;DHT22;23489;49.600;6.138;2022-12-05T12:03:45;3.90;99.90
37646;DHT22;23489;49.600;6.138;2022-12-05T12:06:18;3.90;99.90
37646;DHT22;23489;49.600;6.138;2022-12-05T12:09:11;3.90;99.90
37646;DHT22;23489;49.600;6.138;2022-12-05T12:17:20;3.90;99.90
37646;DHT22;23489;49.600;6.138;2022-12-05T12:20:01;4.00;99.90
37646;DHT22;23489;49.600;6.138;2022-12-05T12:22:47;4.10;99.90
37646;DHT22;23489;49.600;6.138;2022-12-05T12:36:26;4.40;99.90
37646;DHT22;23489;49.600;6.138;2022-12-05T12:39:06;4.50;99.90
37646;DHT22;23489;49.600;6.138;2022-12-05T12:41:54;4.50;99.90
37646;DHT22;23489;49.600;6.138;2022-12-05T12:50:23;4.70;99.90
37646;DHT22;23489;49.600;6.138;2022-12-05T12:53:20;4.60;99.90
37646;DHT22;23489;49.600;6.138;2022-12-05T13:04:09;4.60;99.90
37646;DHT22;23489;49.600;6.138;2022-12-05T13:06:41;4.50;99.90
37646;DHT22;23489;49.600;6.138;2022-12-05T13:11:48;4.50;99.90
37646;DHT22;23489;49.600;6.138;2022-12-05T13:14:17;4.40;99.90
37646;DHT22;23489;49.600;6.138;2022-12-05T13:16:50;4.30;99.90
37646;DHT22;23489;49.600;6.138;2022-12-05T13:19:25;4.30;99.90
37646;DHT22;23489;49.600;6.138;2022-12-05T13:21:52;4.30;99.90
37646;DHT22;23489;49.600;6.138;2022-12-05T13:24:19;4.20;99.90
37646;DHT22;23489;49.600;6.138;2022-12-05T13:26:48;4.20;99.90
37646;DHT22;23489;49.600;6.138;2022-12-05T13:29:34;4.20;99.90
37646;DHT22;23489;49.600;6.138;2022-12-05T13:32:02;4.20;99.90
37646;DHT22;23489;49.600;6.138;2022-12-05T13:36:57;4.20;99.90
37646;DHT22;23489;49.600;6.138;2022-12-05T13:39:49;4.20;99.90
37646;DHT22;23489;49.600;6.138;2022-12-05T13:42:34;4.20;99.90
37646;DHT22;23489;49.600;6.138;2022-12-05T13:45:05;4.30;99.90
37646;DHT22;23489;49.600;6.138;2022-12-05T13:47:52;4.30;99.90
37646;DHT22;23489;49.600;6.138;2022-12-05T13:50:34;4.40;99.90
37646;DHT22;23489;49.600;6.138;2022-12-05T13:53:04;4.40;99.90
37646;DHT22;23489;49.600;6.138;2022-12-05T13:55:37;4.30;99.90
37646;DHT22;23489;49.600;6.138;2022-12-05T14:00:41;4.30;99.90
37646;DHT22;23489;49.600;6.138;2022-12-05T14:05:59;4.30;99.90
37646;DHT22;23489;49.600;6.138;2022-12-05T14:15:53;4.40;99.90
37646;DHT22;23489;49.600;6.138;2022-12-05T14:21:16;4.40;99.90
37646;DHT22;23489;49.600;6.138;2022-12-05T14:29:46;4.20;99.90
37646;DHT22;23489;49.600;6.138;2022-12-05T14:32:21;4.20;99.90
37646;DHT22;23489;49.600;6.138;2022-12-05T14:34:53;4.20;99.90
37646;DHT22;23489;49.600;6.138;2022-12-05T14:39:59;4.10;99.90
37646;DHT22;23489;49.600;6.138;2022-12-05T14:42:35;4.20;99.90
37646;DHT22;23489;49.600;6.138;2022-12-05T14:47:55;4.20;99.90
37646;DHT22;23489;49.600;6.138;2022-12-05T14:50:43;4.10;99.90
37646;DHT22;23489;49.600;6.138;2022-12-05T14:53:23;4.00;99.90
37646;DHT22;23489;49.600;6.138;2022-12-05T14:58:42;4.00;99.90
37646;DHT22;23489;49.600;6.138;2022-12-05T15:01:38;4.00;99.90
37646;DHT22;23489;49.600;6.138;2022-12-05T15:06:58;3.90;99.90
37646;DHT22;23489;49.600;6.138;2022-12-05T15:12:03;3.80;99.90
37646;DHT22;23489;49.600;6.138;2022-12-05T15:14:33;3.80;99.90
37646;DHT22;23489;49.600;6.138;2022-12-05T15:17:02;3.80;99.90
37646;DHT22;23489;49.600;6.138;2022-12-05T15:19:44;3.70;99.90
37646;DHT22;23489;49.600;6.138;2022-12-05T15:22:12;3.70;99.90
37646;DHT22;23489;49.600;6.138;2022-12-05T15:24:39;3.70;99.90
37646;DHT22;23489;49.600;6.138;2022-12-05T15:27:09;3.80;99.90
37646;DHT22;23489;49.600;6.138;2022-12-05T15:29:36;3.80;99.90
37646;DHT22;23489;49.600;6.138;2022-12-05T15:32:23;3.70;99.90
37646;DHT22;23489;49.600;6.138;2022-12-05T15:35:06;3.80;99.90
37646;DHT22;23489;49.600;6.138;2022-12-05T15:37:48;3.80;99.90
37646;DHT22;23489;49.600;6.138;2022-12-05T15:40:16;3.80;99.90
37646;DHT22;23489;49.600;6.138;2022-12-05T15:42:51;3.80;99.90
37646;DHT22;23489;49.600;6.138;2022-12-05T15:45:19;3.80;99.90
37646;DHT22;23489;49.600;6.138;2022-12-05T15:58:14;3.60;99.90
37646;DHT22;23489;49.600;6.138;2022-12-05T16:00:46;3.60;99.90
37646;DHT22;23489;49.600;6.138;2022-12-05T16:03:24;3.60;99.90
37646;DHT22;23489;49.600;6.138;2022-12-05T16:05:56;3.60;99.90
37646;DHT22;23489;49.600;6.138;2022-12-05T16:08:23;3.60;99.90
37646;DHT22;23489;49.600;6.138;2022-12-05T16:10:49;3.60;99.90
37646;DHT22;23489;49.600;6.138;2022-12-05T16:13:16;3.60;99.90
37646;DHT22;23489;49.600;6.138;2022-12-05T16:15:48;3.60;99.90
37646;DHT22;23489;49.600;6.138;2022-12-05T16:18:27;3.70;99.90
37646;DHT22;23489;49.600;6.138;2022-12-05T16:20:54;3.60;99.90
37646;DHT22;23489;49.600;6.138;2022-12-05T16:23:26;3.70;99.90
37646;DHT22;23489;49.600;6.138;2022-12-05T16:25:53;3.70;99.90
37646;DHT22;23489;49.600;6.138;2022-12-05T16:28:34;3.70;99.90
37646;DHT22;23489;49.600;6.138;2022-12-05T16:31:02;3.70;99.90
37646;DHT22;23489;49.600;6.138;2022-12-05T16:33:30;3.70;99.90
37646;DHT22;23489;49.600;6.138;2022-12-05T16:36:06;3.70;99.90
37646;DHT22;23489;49.600;6.138;2022-12-05T16:38:32;3.60;99.90
37646;DHT22;23489;49.600;6.138;2022-12-05T16:41:05;3.50;99.90
37646;DHT22;23489;49.600;6.138;2022-12-05T16:48:33;3.50;99.90
37646;DHT22;23489;49.600;6.138;2022-12-05T16:51:24;3.50;99.90
37646;DHT22;23489;49.600;6.138;2022-12-05T16:53:53;3.40;99.90
37646;DHT22;23489;49.600;6.138;2022-12-05T16:58:50;3.30;99.90
37646;DHT22;23489;49.600;6.138;2022-12-05T17:01:18;3.30;99.90
37646;DHT22;23489;49.600;6.138;2022-12-05T17:03:45;3.30;99.90
37646;DHT22;23489;49.600;6.138;2022-12-05T17:06:11;3.30;99.90
37646;DHT22;23489;49.600;6.138;2022-12-05T17:08:37;3.40;99.90
37646;DHT22;23489;49.600;6.138;2022-12-05T17:11:02;3.40;99.90
37646;DHT22;23489;49.600;6.138;2022-12-05T17:13:30;3.40;99.90
37646;DHT22;23489;49.600;6.138;2022-12-05T17:15:56;3.30;99.90
37646;DHT22;23489;49.600;6.138;2022-12-05T17:18:22;3.30;99.90
37646;DHT22;23489;49.600;6.138;2022-12-05T17:20:52;3.40;99.90
37646;DHT22;23489;49.600;6.138;2022-12-05T17:23:19;3.30;99.90
37646;DHT22;23489;49.600;6.138;2022-12-05T17:26:03;3.30;99.90
37646;DHT22;23489;49.600;6.138;2022-12-05T17:28:28;3.30;99.90
37646;DHT22;23489;49.600;6.138;2022-12-05T17:30:54;3.30;99.90
37646;DHT22;23489;49.600;6.138;2022-12-05T17:33:20;3.30;99.90
37646;DHT22;23489;49.600;6.138;2022-12-05T17:35:45;3.30;99.90
37646;DHT22;23489;49.600;6.138;2022-12-05T17:38:11;3.30;99.90
37646;DHT22;23489;49.600;6.138;2022-12-05T17:40:37;3.30;99.90
37646;DHT22;23489;49.600;6.138;2022-12-05T17:43:04;3.30;99.90
37646;DHT22;23489;49.600;6.138;2022-12-05T17:45:29;3.30;99.90
37646;DHT22;23489;49.600;6.138;2022-12-05T17:47:56;3.30;99.90
37646;DHT22;23489;49.600;6.138;2022-12-05T17:50:23;3.30;99.90
37646;DHT22;23489;49.600;6.138;2022-12-05T17:52:50;3.30;99.90
37646;DHT22;23489;49.600;6.138;2022-12-05T17:55:21;3.30;99.90
37646;DHT22;23489;49.600;6.138;2022-12-05T17:57:48;3.20;99.90
37646;DHT22;23489;49.600;6.138;2022-12-05T18:00:15;3.10;99.90
37646;DHT22;23489;49.600;6.138;2022-12-05T18:02:43;2.90;99.90
37646;DHT22;23489;49.600;6.138;2022-12-05T18:05:10;2.90;99.90
37646;DHT22;23489;49.600;6.138;2022-12-05T18:07:36;2.90;99.90
37646;DHT22;23489;49.600;6.138;2022-12-05T18:10:03;2.90;99.90
37646;DHT22;23489;49.600;6.138;2022-12-05T18:12:29;3.00;99.90
37646;DHT22;23489;49.600;6.138;2022-12-05T18:14:55;3.00;99.90
37646;DHT22;23489;49.600;6.138;2022-12-05T18:17:21;3.00;99.90
37646;DHT22;23489;49.600;6.138;2022-12-05T18:19:47;3.00;99.90
37646;DHT22;23489;49.600;6.138;2022-12-05T18:22:13;2.90;99.90
37646;DHT22;23489;49.600;6.138;2022-12-05T18:24:39;3.00;99.90
37646;DHT22;23489;49.600;6.138;2022-12-05T18:27:05;2.90;99.90
37646;DHT22;23489;49.600;6.138;2022-12-05T18:29:31;3.00;99.90
37646;DHT22;23489;49.600;6.138;2022-12-05T18:31:56;3.00;99.90
37646;DHT22;23489;49.600;6.138;2022-12-05T18:34:22;3.00;99.90
37646;DHT22;23489;49.600;6.138;2022-12-05T18:36:48;3.00;99.90
37646;DHT22;23489;49.600;6.138;2022-12-05T18:39:13;2.90;99.90
37646;DHT22;23489;49.600;6.138;2022-12-05T18:41:40;2.80;99.90
37646;DHT22;23489;49.600;6.138;2022-12-05T18:44:07;2.80;99.90
37646;DHT22;23489;49.600;6.138;2022-12-05T18:46:35;2.80;99.90
37646;DHT22;23489;49.600;6.138;2022-12-05T18:49:02;2.90;99.90